KHMN/HMN METAR and TAF weather

Enter ICAO airport designator
Station Type Date Time Source
KHMN METAR 2020/01/17 13:58 UTC NOAA

KHMN 171358Z AUTO 00000KT 10SM OVC065 05/03 A3015 RMK AO2 SLP193 T00520034 $


Station Type Date Time Source
KHMN Decoded METAR 2020/01/17 13:58 UTC NOAA

Holloman Air Force Base, NM, United States (KHMN) 32-51N 106-06W 1248M
Jan 17, 2020 - 08:58 AM EST / 2020.01.17 1358 UTC
Wind: Calm:0
Visibility: 10 mile(s):0
Sky conditions: overcast
Temperature: 41.4 F (5.2 C)
Dew Point: 38.1 F (3.4 C)
Relative Humidity: 88%
Pressure (altimeter): 30.15 in. Hg (1020 hPa)
ob: KHMN 171358Z AUTO 00000KT 10SM OVC065 05/03 A3015 RMK AO2 SLP193 T00520034
cycle: 14

Station Type Date Time Source
KHMN TAF 2020/01/17 12:58 UTC NOAA

TAF
AMD KHMN 171258Z 1712/1815 VRB06KT 9999 BKN060 QNH3013INS
BECMG 1715/1716 VRB06KT 9999 SCT060 QNH3017INS
BECMG 1719/1720 20010G15KT 9999 FEW060 QNH3015INS
BECMG 1800/1801 VRB06KT 9999 SKC QNH3012INS TX15/1721Z TN02/1714Z

Example: see airport list